createdAt,value
2018-12-12T00:01:55.629Z,4.03
2018-12-12T00:04:21.797Z,5.57
2018-12-12T00:06:48.415Z,4.87
2018-12-12T00:09:14.554Z,6.90
2018-12-12T00:11:40.692Z,4.03
2018-12-12T00:14:06.864Z,3.50
2018-12-12T00:16:33.015Z,4.97
2018-12-12T00:18:59.365Z,4.43
2018-12-12T00:21:25.528Z,3.73
2018-12-12T00:23:51.665Z,4.63
2018-12-12T00:26:17.789Z,3.87
2018-12-12T00:28:44.010Z,4.63
2018-12-12T00:31:10.177Z,7.17
2018-12-12T00:33:36.338Z,6.43
2018-12-12T00:36:02.553Z,7.30
2018-12-12T00:38:28.697Z,7.63
2018-12-12T00:40:54.834Z,5.90
2018-12-12T00:43:21.129Z,6.07
2018-12-12T00:45:47.274Z,6.63
2018-12-12T00:48:13.416Z,7.10
2018-12-12T00:50:39.625Z,8.17
2018-12-12T00:53:05.801Z,7.23
2018-12-12T00:55:31.940Z,4.40
2018-12-12T00:57:58.244Z,5.37
2018-12-12T01:00:24.382Z,4.43
2018-12-12T01:02:57.441Z,5.13
2018-12-12T01:05:23.608Z,5.27
2018-12-12T01:07:49.749Z,3.70
2018-12-12T01:10:15.902Z,3.70
2018-12-12T01:12:42.081Z,4.70
2018-12-12T01:15:08.237Z,4.73
2018-12-12T01:17:34.400Z,4.57
2018-12-12T01:20:00.589Z,4.90
2018-12-12T01:22:26.727Z,5.27
2018-12-12T01:24:52.869Z,5.53
2018-12-12T01:27:19.025Z,4.37
2018-12-12T01:29:45.216Z,5.57
2018-12-12T01:32:11.466Z,5.57
2018-12-12T01:34:37.720Z,6.40
2018-12-12T01:37:04.313Z,5.23
2018-12-12T01:39:30.482Z,5.77
2018-12-12T01:41:56.667Z,6.20
2018-12-12T01:44:23.106Z,6.67
2018-12-12T01:46:49.310Z,6.20
2018-12-12T01:49:15.669Z,7.53
2018-12-12T01:51:41.930Z,6.83
2018-12-12T01:54:08.141Z,7.50
2018-12-12T01:56:34.317Z,6.20
2018-12-12T01:59:00.442Z,8.30
2018-12-12T02:01:26.572Z,7.27
2018-12-12T02:03:53.242Z,6.50
2018-12-12T02:06:19.501Z,6.40
2018-12-12T02:08:46.309Z,7.53
2018-12-12T02:11:12.721Z,6.63
2018-12-12T02:13:38.876Z,6.43
2018-12-12T02:16:06.813Z,6.73
2018-12-12T02:18:33.301Z,7.17
2018-12-12T02:20:59.941Z,6.50
2018-12-12T02:23:26.136Z,6.37
2018-12-12T02:25:52.305Z,6.73
2018-12-12T02:28:18.590Z,6.83
2018-12-12T02:30:44.742Z,7.27
2018-12-12T02:33:11.047Z,6.70
2018-12-12T02:35:37.190Z,6.17
2018-12-12T02:38:03.535Z,6.47
2018-12-12T02:40:30.137Z,7.23
2018-12-12T02:42:56.282Z,7.80
2018-12-12T02:45:22.460Z,7.50
2018-12-12T02:47:48.624Z,7.30
2018-12-12T02:50:14.846Z,7.60
2018-12-12T02:52:41.075Z,7.67
2018-12-12T02:55:07.332Z,8.13
2018-12-12T02:57:33.465Z,8.47
2018-12-12T02:59:59.792Z,7.97
2018-12-12T03:02:26.643Z,9.23
2018-12-12T03:04:52.778Z,9.00
2018-12-12T03:07:18.932Z,8.43
2018-12-12T03:09:45.096Z,8.80
2018-12-12T03:12:11.259Z,9.77
2018-12-12T03:14:37.428Z,9.83
2018-12-12T03:17:03.791Z,10.10
2018-12-12T03:19:30.162Z,9.10
2018-12-12T03:21:56.453Z,9.13
2018-12-12T03:24:22.633Z,9.77
2018-12-12T03:26:48.761Z,9.63
2018-12-12T03:29:14.945Z,9.47
2018-12-12T03:31:41.136Z,10.10
2018-12-12T03:34:07.336Z,11.63
2018-12-12T03:36:33.615Z,10.47
2018-12-12T03:38:59.780Z,10.17
2018-12-12T03:41:26.048Z,9.10
2018-12-12T03:43:52.191Z,11.47
2018-12-12T03:46:18.560Z,10.97
2018-12-12T03:48:44.755Z,11.13
2018-12-12T03:51:10.890Z,11.60
2018-12-12T03:53:37.177Z,11.40
2018-12-12T03:56:03.439Z,10.40
2018-12-12T03:58:29.594Z,9.80
2018-12-12T04:01:02.837Z,9.93
2018-12-12T04:03:29.050Z,10.20
2018-12-12T04:05:55.278Z,10.33
2018-12-12T04:08:21.542Z,9.93
2018-12-12T04:10:47.945Z,11.00
2018-12-12T04:13:14.089Z,9.97
2018-12-12T04:15:40.631Z,10.00
2018-12-12T04:18:06.859Z,10.77
2018-12-12T04:20:33.004Z,11.40
2018-12-12T04:22:59.211Z,9.33
2018-12-12T04:25:25.354Z,10.00
2018-12-12T04:27:51.534Z,10.33
2018-12-12T04:30:17.792Z,10.43
2018-12-12T04:32:43.925Z,10.40
2018-12-12T04:35:10.064Z,8.80
2018-12-12T04:37:36.234Z,7.20
2018-12-12T04:40:04.045Z,7.70
2018-12-12T04:42:30.193Z,7.83
2018-12-12T04:44:56.564Z,7.27
2018-12-12T04:47:22.820Z,7.67
2018-12-12T04:49:49.108Z,6.97
2018-12-12T04:52:15.257Z,6.90
2018-12-12T04:54:41.503Z,7.10
2018-12-12T04:57:07.698Z,5.43
2018-12-12T04:59:33.929Z,6.47
2018-12-12T05:02:00.078Z,6.07
2018-12-12T05:04:26.397Z,6.93
2018-12-12T05:06:52.593Z,7.87
2018-12-12T05:09:18.749Z,6.80
2018-12-12T05:11:44.902Z,7.43
2018-12-12T05:14:11.105Z,7.13
2018-12-12T05:16:37.351Z,7.20
2018-12-12T05:19:03.519Z,6.90
2018-12-12T05:21:29.803Z,7.50
2018-12-12T05:23:56.072Z,7.80
2018-12-12T05:26:22.260Z,6.77
2018-12-12T05:28:48.657Z,6.47
2018-12-12T05:31:14.896Z,8.90
2018-12-12T05:33:41.113Z,8.73
2018-12-12T05:36:07.375Z,9.60
2018-12-12T05:38:33.537Z,9.30
2018-12-12T05:40:59.701Z,9.30
2018-12-12T05:43:26.057Z,9.43
2018-12-12T05:45:52.715Z,8.10
2018-12-12T05:48:18.906Z,9.20
2018-12-12T05:50:45.145Z,7.17
2018-12-12T05:53:11.301Z,8.77
2018-12-12T05:55:37.449Z,8.10
2018-12-12T05:58:03.835Z,8.10
2018-12-12T06:00:30.029Z,8.70
2018-12-12T06:02:56.259Z,8.37
2018-12-12T06:05:22.517Z,10.72
2018-12-12T06:07:48.645Z,8.73
2018-12-12T06:10:14.977Z,7.20
2018-12-12T06:12:41.201Z,8.53
2018-12-12T06:15:07.634Z,9.87
2018-12-12T06:17:40.772Z,10.53
2018-12-12T06:20:07.918Z,8.80
2018-12-12T06:22:37.653Z,10.57
2018-12-12T06:25:03.090Z,11.27
2018-12-12T06:27:29.422Z,11.47
2018-12-12T06:29:55.617Z,10.70
2018-12-12T06:32:21.828Z,10.33
2018-12-12T06:34:47.958Z,12.67
2018-12-12T06:37:14.112Z,8.37
2018-12-12T06:39:40.361Z,10.30
2018-12-12T06:42:06.567Z,9.10
2018-12-12T06:44:32.812Z,8.37
2018-12-12T06:46:59.094Z,9.77
2018-12-12T06:49:25.461Z,8.13
2018-12-12T06:51:51.617Z,9.77
2018-12-12T06:54:17.928Z,10.03
2018-12-12T06:56:44.077Z,6.90
2018-12-12T06:59:10.215Z,9.80
2018-12-12T07:01:36.835Z,9.50
2018-12-12T07:04:03.028Z,9.37
2018-12-12T07:06:29.271Z,6.73
2018-12-12T07:08:55.703Z,8.50
2018-12-12T07:11:21.848Z,17.40
2018-12-12T07:13:48.125Z,9.03
2018-12-12T07:16:14.387Z,9.93
2018-12-12T07:18:40.597Z,8.80
2018-12-12T07:21:06.720Z,8.83
2018-12-12T07:23:33.070Z,8.53
2018-12-12T07:25:59.298Z,8.17
2018-12-12T07:28:25.495Z,9.60
2018-12-12T07:30:51.753Z,9.63
2018-12-12T07:33:17.897Z,8.47
2018-12-12T07:35:44.043Z,11.10
2018-12-12T07:38:10.439Z,11.43
2018-12-12T07:40:36.647Z,11.27
2018-12-12T07:43:02.792Z,11.57
2018-12-12T07:45:28.964Z,13.70
2018-12-12T07:48:01.273Z,11.50
2018-12-12T07:50:23.509Z,11.57
2018-12-12T07:52:49.817Z,10.50
2018-12-12T07:55:16.078Z,11.93
2018-12-12T07:57:42.273Z,13.27
2018-12-12T08:00:08.755Z,12.77
2018-12-12T08:02:35.156Z,11.53
2018-12-12T08:05:01.357Z,12.63
2018-12-12T08:10:04.876Z,17.60
2018-12-12T08:12:31.097Z,12.47
2018-12-12T08:14:57.217Z,13.37
2018-12-12T08:17:23.349Z,11.00
2018-12-12T08:19:49.497Z,12.27
2018-12-12T08:22:15.849Z,13.50
2018-12-12T08:24:42.078Z,12.10
2018-12-12T08:27:08.271Z,13.37
2018-12-12T08:29:34.407Z,13.47
2018-12-12T08:32:00.725Z,11.17
2018-12-12T08:34:26.987Z,14.57
2018-12-12T08:36:53.215Z,15.87
2018-12-12T08:39:19.443Z,17.60
2018-12-12T08:41:45.622Z,15.50
2018-12-12T08:44:11.864Z,14.90
2018-12-12T08:46:38.005Z,15.77
2018-12-12T08:49:04.205Z,17.67
2018-12-12T08:51:30.549Z,16.37
2018-12-12T08:53:56.809Z,12.83
2018-12-12T08:56:23.038Z,14.10
2018-12-12T08:58:49.177Z,13.50
2018-12-12T09:01:15.498Z,10.50
2018-12-12T09:03:41.679Z,12.87
2018-12-12T09:06:07.948Z,13.90
2018-12-12T09:08:34.162Z,17.23
2018-12-12T09:11:00.388Z,20.20
2018-12-12T09:13:26.554Z,15.60
2018-12-12T09:15:52.725Z,11.23
2018-12-12T09:18:19.071Z,12.20
2018-12-12T09:20:45.315Z,11.90
2018-12-12T09:23:11.508Z,10.93
2018-12-12T09:25:37.771Z,11.00
2018-12-12T09:28:04.000Z,13.90
2018-12-12T09:30:30.401Z,17.97
2018-12-12T09:32:56.872Z,20.90
2018-12-12T09:35:23.268Z,20.47
2018-12-12T09:37:49.406Z,18.67
2018-12-12T09:40:15.617Z,10.57
2018-12-12T09:42:41.774Z,11.43
2018-12-12T09:45:08.042Z,14.93
2018-12-12T09:47:34.434Z,11.60
2018-12-12T09:50:00.646Z,12.27
2018-12-12T09:52:26.799Z,11.27
2018-12-12T09:54:52.973Z,11.17
2018-12-12T09:57:19.313Z,12.33
2018-12-12T09:59:45.508Z,14.30
2018-12-12T10:02:11.783Z,9.03
2018-12-12T10:04:38.030Z,13.20
2018-12-12T10:07:04.257Z,9.40
2018-12-12T10:09:30.487Z,10.83
2018-12-12T10:11:56.644Z,11.80
2018-12-12T10:14:22.837Z,8.67
2018-12-12T10:16:49.137Z,9.07
2018-12-12T10:19:15.779Z,11.13
2018-12-12T10:21:41.940Z,10.10
2018-12-12T10:24:08.129Z,12.53
2018-12-12T10:26:34.660Z,6.97
2018-12-12T10:29:01.062Z,8.93
2018-12-12T10:31:27.397Z,8.97
2018-12-12T10:33:53.537Z,8.30
2018-12-12T10:36:19.787Z,12.30
2018-12-12T10:38:46.036Z,12.97
2018-12-12T10:41:12.193Z,12.03
2018-12-12T10:43:38.350Z,13.17
2018-12-12T10:46:04.690Z,6.27
2018-12-12T10:48:30.960Z,14.30
2018-12-12T10:50:57.382Z,11.97
2018-12-12T10:53:23.782Z,12.40
2018-12-12T10:58:26.188Z,13.03
2018-12-12T11:00:58.461Z,18.27
2018-12-12T11:03:30.758Z,16.70
2018-12-12T11:05:57.029Z,17.87
2018-12-12T11:08:23.215Z,13.03
2018-12-12T11:10:49.667Z,13.87
2018-12-12T11:13:15.822Z,13.50
2018-12-12T11:15:41.966Z,29.97
2018-12-12T11:18:08.142Z,18.97
2018-12-12T11:20:34.358Z,13.23
2018-12-12T11:23:00.517Z,12.77
2018-12-12T11:25:26.675Z,11.97
2018-12-12T11:27:52.818Z,12.77
2018-12-12T11:30:18.994Z,19.30
2018-12-12T11:32:45.204Z,10.93
2018-12-12T11:35:11.329Z,20.77
2018-12-12T11:37:37.473Z,21.17
2018-12-12T11:40:04.793Z,23.03
2018-12-12T11:42:30.926Z,16.13
2018-12-12T11:44:57.069Z,18.47
2018-12-12T11:47:23.241Z,17.60
2018-12-12T11:49:49.554Z,15.93
2018-12-12T11:52:15.681Z,19.30
2018-12-12T11:54:41.861Z,16.33
2018-12-12T11:57:08.673Z,13.60
2018-12-12T11:59:34.901Z,16.77
2018-12-12T12:02:01.170Z,17.97
2018-12-12T12:04:27.309Z,17.10
2018-12-12T12:06:53.448Z,18.83
2018-12-12T12:09:19.666Z,18.10
2018-12-12T12:11:45.806Z,18.17
2018-12-12T12:14:11.925Z,15.37
2018-12-12T12:16:38.095Z,14.27
2018-12-12T12:19:04.240Z,15.03
2018-12-12T12:21:30.382Z,16.47
2018-12-12T12:24:03.541Z,11.57
2018-12-12T12:26:29.929Z,14.83
2018-12-12T12:28:56.413Z,10.47
2018-12-12T12:31:23.982Z,15.90
2018-12-12T12:33:50.267Z,22.13
2018-12-12T12:36:16.424Z,18.43
2018-12-12T12:38:42.589Z,15.53
2018-12-12T12:41:08.713Z,15.57
2018-12-12T12:43:34.862Z,13.07
2018-12-12T12:46:01.036Z,12.90
2018-12-12T12:48:27.190Z,16.10
2018-12-12T12:50:53.355Z,13.43
2018-12-12T12:53:19.525Z,14.50
2018-12-12T12:55:45.664Z,12.17
2018-12-12T12:58:11.830Z,13.67
2018-12-12T13:00:38.005Z,8.40
2018-12-12T13:03:04.184Z,10.87
2018-12-12T13:05:30.337Z,12.97
2018-12-12T13:07:56.486Z,13.53
2018-12-12T13:10:22.931Z,18.53
2018-12-12T13:12:49.327Z,55.33
2018-12-12T13:15:15.745Z,17.53
2018-12-12T13:17:41.896Z,16.20
2018-12-12T13:20:08.066Z,13.27
2018-12-12T13:22:34.245Z,10.87
2018-12-12T13:25:00.392Z,13.67
2018-12-12T13:27:26.534Z,11.37
2018-12-12T13:29:52.722Z,18.63
2018-12-12T13:32:18.862Z,9.53
2018-12-12T13:34:45.019Z,10.33
2018-12-12T13:37:11.194Z,12.50
2018-12-12T13:39:37.321Z,19.00
2018-12-12T13:42:03.464Z,11.17
2018-12-12T13:44:29.666Z,8.10
2018-12-12T13:46:55.793Z,9.87
2018-12-12T13:49:21.913Z,15.37
2018-12-12T13:51:48.066Z,12.27
2018-12-12T13:54:14.197Z,31.33
2018-12-12T13:56:40.330Z,9.27
2018-12-12T13:59:06.530Z,15.13
2018-12-12T14:01:32.677Z,13.90
2018-12-12T14:03:58.812Z,11.43
2018-12-12T14:06:25.001Z,18.10
2018-12-12T14:08:51.139Z,25.03
2018-12-12T14:11:17.282Z,24.73
2018-12-12T14:13:43.438Z,24.13
2018-12-12T14:16:09.623Z,20.30
2018-12-12T14:18:35.765Z,27.40
2018-12-12T14:21:01.945Z,27.33
2018-12-12T14:23:28.117Z,33.20
2018-12-12T14:25:54.262Z,30.13
2018-12-12T14:28:20.471Z,49.93
2018-12-12T14:30:46.733Z,42.33
2018-12-12T14:33:12.870Z,45.63
2018-12-12T14:35:39.041Z,37.67
2018-12-12T14:38:05.195Z,22.03
2018-12-12T14:40:31.341Z,26.90
2018-12-12T14:42:57.497Z,14.53
2018-12-12T14:45:23.629Z,16.97
2018-12-12T14:47:49.785Z,15.73
2018-12-12T14:50:15.993Z,24.33
2018-12-12T14:52:42.143Z,28.93
2018-12-12T14:55:08.304Z,24.03
2018-12-12T14:57:34.478Z,23.43
2018-12-12T15:00:00.880Z,26.83
2018-12-12T15:02:27.067Z,39.00
2018-12-12T15:04:53.339Z,45.53
2018-12-12T15:07:19.489Z,29.17
2018-12-12T15:09:45.653Z,17.13
2018-12-12T15:12:11.853Z,41.70
2018-12-12T15:14:37.980Z,31.43
2018-12-12T15:17:04.270Z,32.07
2018-12-12T15:19:30.449Z,26.47
2018-12-12T15:21:56.586Z,24.37
2018-12-12T15:24:22.733Z,28.33
2018-12-12T15:26:48.895Z,24.80
2018-12-12T15:29:15.033Z,21.53
2018-12-12T15:31:41.180Z,31.30
2018-12-12T15:34:07.405Z,42.20
2018-12-12T15:36:33.553Z,46.87
2018-12-12T15:38:59.693Z,51.33
2018-12-12T15:41:25.889Z,52.97
2018-12-12T15:43:52.016Z,44.37
2018-12-12T15:46:18.205Z,49.13
2018-12-12T15:48:44.412Z,52.37
2018-12-12T15:53:44.269Z,41.93
2018-12-12T15:56:10.507Z,36.93
2018-12-12T15:58:36.723Z,32.10
2018-12-12T16:01:02.878Z,38.47
2018-12-12T16:03:29.072Z,29.93
2018-12-12T16:05:55.260Z,31.70
2018-12-12T16:08:21.446Z,20.33
2018-12-12T16:10:47.662Z,17.40
2018-12-12T16:13:14.144Z,16.13
2018-12-12T16:15:40.318Z,12.93
2018-12-12T16:18:06.519Z,15.60
2018-12-12T16:20:32.748Z,11.63
2018-12-12T16:22:58.889Z,12.37
2018-12-12T16:25:25.085Z,11.20
2018-12-12T16:27:52.279Z,10.07
2018-12-12T16:30:18.550Z,13.37
2018-12-12T16:32:44.950Z,11.00
2018-12-12T16:35:11.100Z,9.53
2018-12-12T16:37:37.247Z,10.40
2018-12-12T16:40:04.723Z,8.77
2018-12-12T16:42:30.871Z,10.37
2018-12-12T16:44:56.998Z,11.73
2018-12-12T16:47:23.233Z,14.33
2018-12-12T16:49:49.401Z,15.90
2018-12-12T16:52:15.544Z,31.33
2018-12-12T16:54:41.710Z,23.27
2018-12-12T16:57:07.866Z,20.03
2018-12-12T16:59:34.049Z,14.10
2018-12-12T17:02:00.269Z,16.50
2018-12-12T17:04:28.404Z,25.03
2018-12-12T17:06:54.733Z,25.63
2018-12-12T17:09:21.964Z,19.40
2018-12-12T17:11:50.409Z,22.00
2018-12-12T17:14:20.187Z,16.20
2018-12-12T17:16:46.385Z,36.37
2018-12-12T17:19:12.523Z,93.67
2018-12-12T17:21:39.864Z,23.50
2018-12-12T17:24:07.211Z,34.70
2018-12-12T17:26:38.160Z,17.63
2018-12-12T17:29:04.705Z,12.13
2018-12-12T17:31:34.529Z,9.13
2018-12-12T17:34:00.693Z,7.77
2018-12-12T17:36:26.832Z,7.80
2018-12-12T17:38:53.000Z,12.40
2018-12-12T17:41:19.295Z,9.57
2018-12-12T17:43:46.026Z,26.23
2018-12-12T17:46:12.410Z,17.97
2018-12-12T17:48:38.581Z,35.27
2018-12-12T17:51:04.723Z,44.70
2018-12-12T17:53:30.905Z,12.37
2018-12-12T17:55:57.069Z,12.50
2018-12-12T17:58:23.214Z,7.90
2018-12-12T18:00:49.486Z,18.50
2018-12-12T18:03:15.621Z,12.20
2018-12-12T18:05:41.744Z,9.73
2018-12-12T18:08:07.925Z,6.07
2018-12-12T18:10:35.617Z,10.17
2018-12-12T18:13:02.057Z,6.10
2018-12-12T18:15:28.216Z,5.50
2018-12-12T18:17:54.386Z,6.20
2018-12-12T18:20:20.549Z,8.17
2018-12-12T18:22:46.717Z,8.40
2018-12-12T18:25:12.848Z,10.50
2018-12-12T18:27:38.993Z,6.17
2018-12-12T18:30:06.345Z,15.07
2018-12-12T18:32:32.512Z,8.87
2018-12-12T18:34:58.658Z,7.80
2018-12-12T18:37:24.818Z,11.80
2018-12-12T18:39:50.957Z,10.50
2018-12-12T18:42:17.113Z,9.30
2018-12-12T18:44:43.289Z,8.40
2018-12-12T18:47:09.414Z,21.70
2018-12-12T18:49:35.547Z,15.67
2018-12-12T18:52:01.704Z,13.07
2018-12-12T18:54:27.881Z,37.63
2018-12-12T18:56:54.051Z,11.83
2018-12-12T18:59:20.249Z,37.13
2018-12-12T19:01:46.410Z,23.07
2018-12-12T19:04:12.562Z,18.80
2018-12-12T19:06:38.741Z,31.70
2018-12-12T19:09:05.037Z,54.23
2018-12-12T19:11:31.194Z,100.30
2018-12-12T19:13:57.362Z,29.13
2018-12-12T19:16:23.528Z,62.50
2018-12-12T19:18:49.700Z,23.93
2018-12-12T19:21:15.865Z,12.40
2018-12-12T19:23:42.054Z,34.57
2018-12-12T19:26:08.195Z,14.17
2018-12-12T19:28:34.358Z,11.27
2018-12-12T19:31:00.630Z,11.53
2018-12-12T19:33:26.777Z,12.53
2018-12-12T19:35:52.986Z,12.88
2018-12-12T19:38:19.185Z,11.40
2018-12-12T19:40:45.346Z,11.87
2018-12-12T19:43:11.549Z,11.77
2018-12-12T19:45:37.761Z,14.27
2018-12-12T19:48:03.900Z,16.97
2018-12-12T19:50:30.065Z,20.67
2018-12-12T19:52:56.233Z,22.10
2018-12-12T19:55:22.377Z,21.20
2018-12-12T19:57:48.551Z,12.10
2018-12-12T20:00:14.705Z,9.60
2018-12-12T20:02:40.851Z,13.43
2018-12-12T20:05:07.203Z,9.87
2018-12-12T20:07:33.362Z,11.53
2018-12-12T20:09:59.522Z,11.00
2018-12-12T20:12:25.719Z,8.57
2018-12-12T20:14:51.877Z,8.73
2018-12-12T20:17:18.030Z,12.87
2018-12-12T20:19:44.197Z,10.40
2018-12-12T20:22:10.358Z,9.60
2018-12-12T20:24:37.169Z,8.93
2018-12-12T20:27:03.868Z,9.80
2018-12-12T20:29:30.018Z,9.17
2018-12-12T20:31:56.172Z,9.63
2018-12-12T20:34:22.350Z,8.87
2018-12-12T20:36:48.481Z,9.10
2018-12-12T20:39:14.642Z,9.70
2018-12-12T20:41:40.845Z,10.77
2018-12-12T20:44:06.986Z,19.40
2018-12-12T20:46:33.137Z,21.30
2018-12-12T20:48:59.313Z,26.73
2018-12-12T20:51:25.481Z,9.57
2018-12-12T20:53:51.653Z,11.80
2018-12-12T20:56:17.808Z,7.53
2018-12-12T20:58:43.953Z,4.77
2018-12-12T21:01:10.160Z,6.67
2018-12-12T21:03:36.340Z,5.60
2018-12-12T21:06:02.486Z,7.80
2018-12-12T21:08:28.638Z,13.57
2018-12-12T21:10:54.844Z,7.30
2018-12-12T21:13:20.982Z,8.80
2018-12-12T21:15:47.133Z,6.07
2018-12-12T21:18:13.352Z,4.73
2018-12-12T21:20:39.516Z,4.13
2018-12-12T21:23:05.674Z,3.27
2018-12-12T21:25:32.504Z,6.43
2018-12-12T21:27:58.638Z,5.37
2018-12-12T21:30:24.769Z,4.90
2018-12-12T21:32:50.938Z,5.17
2018-12-12T21:35:17.101Z,4.50
2018-12-12T21:37:43.248Z,4.67
2018-12-12T21:40:09.445Z,5.53
2018-12-12T21:42:35.605Z,4.47
2018-12-12T21:45:01.774Z,3.67
2018-12-12T21:47:27.956Z,3.93
2018-12-12T21:49:54.109Z,4.67
2018-12-12T21:52:20.260Z,4.00
2018-12-12T21:54:46.420Z,3.50
2018-12-12T21:57:12.562Z,3.93
2018-12-12T21:59:38.713Z,4.47
2018-12-12T22:02:04.893Z,4.30
2018-12-12T22:04:37.038Z,4.73
2018-12-12T22:06:59.209Z,4.33
2018-12-12T22:09:25.393Z,4.00
2018-12-12T22:11:51.529Z,17.57
2018-12-12T22:16:53.991Z,9.97
2018-12-12T22:19:20.140Z,7.77
2018-12-12T22:21:46.270Z,27.63
2018-12-12T22:24:12.450Z,28.80
2018-12-12T22:26:38.586Z,6.73
2018-12-12T22:29:04.749Z,11.63
2018-12-12T22:31:30.909Z,13.43
2018-12-12T22:33:57.048Z,15.57
2018-12-12T22:36:23.317Z,19.83
2018-12-12T22:38:49.602Z,27.53
2018-12-12T22:41:15.737Z,16.00
2018-12-12T22:43:41.861Z,26.90
2018-12-12T22:46:08.032Z,25.07
2018-12-12T22:48:34.193Z,89.00
2018-12-12T22:51:00.341Z,25.07
2018-12-12T22:53:26.501Z,24.57
2018-12-12T22:55:52.628Z,36.37
2018-12-12T22:58:18.766Z,37.13
2018-12-12T23:00:47.850Z,6.50
2018-12-12T23:03:13.989Z,9.80
2018-12-12T23:05:40.121Z,14.00
2018-12-12T23:08:06.285Z,8.97
2018-12-12T23:10:32.438Z,7.37
2018-12-12T23:12:58.573Z,7.53
2018-12-12T23:15:24.985Z,6.67
2018-12-12T23:17:51.125Z,7.43
2018-12-12T23:20:17.266Z,7.70
2018-12-12T23:22:43.429Z,7.00
2018-12-12T23:25:09.545Z,6.20
2018-12-12T23:27:35.680Z,7.00
2018-12-12T23:30:03.209Z,6.70
2018-12-12T23:32:29.349Z,5.93
2018-12-12T23:34:55.495Z,6.57
2018-12-12T23:37:21.673Z,6.00
2018-12-12T23:39:47.809Z,5.80
2018-12-12T23:42:13.930Z,6.00
2018-12-12T23:44:40.133Z,6.20
2018-12-12T23:47:06.265Z,6.47
2018-12-12T23:49:32.396Z,7.30
2018-12-12T23:51:58.573Z,6.00
2018-12-12T23:54:24.725Z,5.93
2018-12-12T23:56:50.852Z,6.83
2018-12-12T23:59:18.032Z,6.77
